sensor_id;sensor_type;location;lat;lon;timestamp;P1;durP1;ratioP1;P2;durP2;ratioP2
78781;SDS011;68126;55.748;48.742;2023-05-23T00:03:39;8.98;;;4.58;;
78781;SDS011;68126;55.748;48.742;2023-05-23T00:09:04;8.35;;;3.77;;
78781;SDS011;68126;55.748;48.742;2023-05-23T00:14:31;7.00;;;4.60;;
78781;SDS011;68126;55.748;48.742;2023-05-23T00:19:56;7.33;;;4.60;;
78781;SDS011;68126;55.748;48.742;2023-05-23T00:25:21;8.90;;;4.05;;
78781;SDS011;68126;55.748;48.742;2023-05-23T00:30:46;7.08;;;3.77;;
78781;SDS011;68126;55.748;48.742;2023-05-23T00:36:11;7.25;;;3.92;;
78781;SDS011;68126;55.748;48.742;2023-05-23T00:41:37;8.93;;;4.08;;
78781;SDS011;68126;55.748;48.742;2023-05-23T00:47:01;8.25;;;4.40;;
78781;SDS011;68126;55.748;48.742;2023-05-23T00:52:26;9.30;;;4.53;;
78781;SDS011;68126;55.748;48.742;2023-05-23T00:57:52;9.68;;;4.80;;
78781;SDS011;68126;55.748;48.742;2023-05-23T01:03:18;7.12;;;4.70;;
78781;SDS011;68126;55.748;48.742;2023-05-23T01:08:43;10.48;;;4.30;;
78781;SDS011;68126;55.748;48.742;2023-05-23T01:14:10;7.25;;;6.33;;
78781;SDS011;68126;55.748;48.742;2023-05-23T01:31:07;7.05;;;4.22;;
78781;SDS011;68126;55.748;48.742;2023-05-23T01:36:33;10.35;;;5.42;;
78781;SDS011;68126;55.748;48.742;2023-05-23T01:42:00;6.97;;;4.87;;
78781;SDS011;68126;55.748;48.742;2023-05-23T01:47:24;8.93;;;4.30;;
78781;SDS011;68126;55.748;48.742;2023-05-23T01:52:49;8.93;;;3.67;;
78781;SDS011;68126;55.748;48.742;2023-05-23T01:58:14;6.25;;;3.20;;
78781;SDS011;68126;55.748;48.742;2023-05-23T02:03:39;10.13;;;4.22;;
78781;SDS011;68126;55.748;48.742;2023-05-23T02:09:04;5.97;;;3.42;;
78781;SDS011;68126;55.748;48.742;2023-05-23T02:14:28;9.58;;;4.50;;
78781;SDS011;68126;55.748;48.742;2023-05-23T02:19:53;9.43;;;3.75;;
78781;SDS011;68126;55.748;48.742;2023-05-23T02:25:17;8.03;;;2.67;;
78781;SDS011;68126;55.748;48.742;2023-05-23T02:30:42;6.55;;;4.33;;
78781;SDS011;68126;55.748;48.742;2023-05-23T02:36:07;7.97;;;4.17;;
78781;SDS011;68126;55.748;48.742;2023-05-23T02:41:32;8.35;;;3.42;;
78781;SDS011;68126;55.748;48.742;2023-05-23T02:46:58;7.12;;;3.50;;
78781;SDS011;68126;55.748;48.742;2023-05-23T02:52:24;12.05;;;4.92;;
78781;SDS011;68126;55.748;48.742;2023-05-23T02:58:09;7.42;;;4.37;;
78781;SDS011;68126;55.748;48.742;2023-05-23T03:03:33;7.90;;;4.75;;
78781;SDS011;68126;55.748;48.742;2023-05-23T03:08:58;4.72;;;2.70;;
78781;SDS011;68126;55.748;48.742;2023-05-23T03:14:23;11.68;;;4.40;;
78781;SDS011;68126;55.748;48.742;2023-05-23T03:19:48;9.63;;;4.40;;
78781;SDS011;68126;55.748;48.742;2023-05-23T03:25:14;10.82;;;5.65;;
78781;SDS011;68126;55.748;48.742;2023-05-23T03:30:38;6.50;;;4.25;;
78781;SDS011;68126;55.748;48.742;2023-05-23T03:36:03;5.42;;;3.60;;
78781;SDS011;68126;55.748;48.742;2023-05-23T03:41:28;5.83;;;2.92;;
78781;SDS011;68126;55.748;48.742;2023-05-23T03:46:53;8.80;;;4.47;;
78781;SDS011;68126;55.748;48.742;2023-05-23T03:52:18;8.13;;;4.53;;
78781;SDS011;68126;55.748;48.742;2023-05-23T03:57:42;7.97;;;4.45;;
78781;SDS011;68126;55.748;48.742;2023-05-23T04:03:07;7.75;;;4.72;;
78781;SDS011;68126;55.748;48.742;2023-05-23T04:08:32;6.45;;;4.83;;
78781;SDS011;68126;55.748;48.742;2023-05-23T04:13:57;6.20;;;5.20;;
78781;SDS011;68126;55.748;48.742;2023-05-23T04:19:23;8.10;;;5.45;;
78781;SDS011;68126;55.748;48.742;2023-05-23T04:24:49;6.17;;;4.00;;
78781;SDS011;68126;55.748;48.742;2023-05-23T04:30:16;6.72;;;4.30;;
78781;SDS011;68126;55.748;48.742;2023-05-23T04:35:40;7.10;;;4.78;;
78781;SDS011;68126;55.748;48.742;2023-05-23T04:46:50;8.50;;;4.20;;
78781;SDS011;68126;55.748;48.742;2023-05-23T04:52:14;8.48;;;4.60;;
78781;SDS011;68126;55.748;48.742;2023-05-23T04:57:40;7.85;;;5.17;;
78781;SDS011;68126;55.748;48.742;2023-05-23T05:03:04;10.63;;;4.67;;
78781;SDS011;68126;55.748;48.742;2023-05-23T05:08:31;9.98;;;4.17;;
78781;SDS011;68126;55.748;48.742;2023-05-23T05:13:57;8.25;;;5.58;;
78781;SDS011;68126;55.748;48.742;2023-05-23T05:19:22;10.80;;;5.70;;
78781;SDS011;68126;55.748;48.742;2023-05-23T05:24:47;14.10;;;5.22;;
78781;SDS011;68126;55.748;48.742;2023-05-23T05:30:12;12.75;;;5.53;;
78781;SDS011;68126;55.748;48.742;2023-05-23T05:35:36;7.37;;;5.03;;
78781;SDS011;68126;55.748;48.742;2023-05-23T05:41:01;12.88;;;4.90;;
78781;SDS011;68126;55.748;48.742;2023-05-23T05:46:26;11.28;;;5.53;;
78781;SDS011;68126;55.748;48.742;2023-05-23T05:51:51;7.53;;;5.50;;
78781;SDS011;68126;55.748;48.742;2023-05-23T05:57:36;12.23;;;5.83;;
78781;SDS011;68126;55.748;48.742;2023-05-23T06:03:03;14.20;;;6.55;;
78781;SDS011;68126;55.748;48.742;2023-05-23T06:08:30;13.38;;;5.67;;
78781;SDS011;68126;55.748;48.742;2023-05-23T06:13:54;8.50;;;5.87;;
78781;SDS011;68126;55.748;48.742;2023-05-23T06:25:04;12.10;;;6.58;;
78781;SDS011;68126;55.748;48.742;2023-05-23T06:30:28;12.55;;;6.85;;
78781;SDS011;68126;55.748;48.742;2023-05-23T06:41:41;10.58;;;7.70;;
78781;SDS011;68126;55.748;48.742;2023-05-23T06:47:06;14.63;;;7.75;;
78781;SDS011;68126;55.748;48.742;2023-05-23T06:52:31;10.98;;;8.68;;
78781;SDS011;68126;55.748;48.742;2023-05-23T06:57:59;19.55;;;9.03;;
78781;SDS011;68126;55.748;48.742;2023-05-23T07:03:27;15.23;;;8.08;;
78781;SDS011;68126;55.748;48.742;2023-05-23T07:08:52;15.93;;;10.48;;
78781;SDS011;68126;55.748;48.742;2023-05-23T07:14:17;15.72;;;9.70;;
78781;SDS011;68126;55.748;48.742;2023-05-23T07:25:28;18.27;;;11.50;;
78781;SDS011;68126;55.748;48.742;2023-05-23T07:30:53;13.95;;;11.48;;
78781;SDS011;68126;55.748;48.742;2023-05-23T07:36:19;14.70;;;10.60;;
78781;SDS011;68126;55.748;48.742;2023-05-23T07:41:44;15.55;;;10.43;;
78781;SDS011;68126;55.748;48.742;2023-05-23T07:47:09;15.85;;;11.12;;
78781;SDS011;68126;55.748;48.742;2023-05-23T07:52:35;18.90;;;10.78;;
78781;SDS011;68126;55.748;48.742;2023-05-23T07:58:00;16.20;;;11.50;;
78781;SDS011;68126;55.748;48.742;2023-05-23T08:03:45;21.23;;;11.38;;
78781;SDS011;68126;55.748;48.742;2023-05-23T08:09:11;17.07;;;11.22;;
78781;SDS011;68126;55.748;48.742;2023-05-23T08:14:38;20.70;;;11.50;;
78781;SDS011;68126;55.748;48.742;2023-05-23T08:20:02;20.57;;;10.72;;
78781;SDS011;68126;55.748;48.742;2023-05-23T08:26:01;15.63;;;10.48;;
78781;SDS011;68126;55.748;48.742;2023-05-23T08:30:58;15.10;;;11.55;;
78781;SDS011;68126;55.748;48.742;2023-05-23T08:36:22;19.42;;;9.95;;
78781;SDS011;68126;55.748;48.742;2023-05-23T08:41:48;14.38;;;9.78;;
78781;SDS011;68126;55.748;48.742;2023-05-23T08:47:14;16.70;;;10.45;;
78781;SDS011;68126;55.748;48.742;2023-05-23T08:58:24;12.25;;;8.08;;
78781;SDS011;68126;55.748;48.742;2023-05-23T09:03:50;14.55;;;9.38;;
78781;SDS011;68126;55.748;48.742;2023-05-23T09:09:15;12.75;;;10.23;;
78781;SDS011;68126;55.748;48.742;2023-05-23T09:14:41;10.80;;;9.43;;
78781;SDS011;68126;55.748;48.742;2023-05-23T09:25:53;11.88;;;9.13;;
78781;SDS011;68126;55.748;48.742;2023-05-23T09:31:18;10.80;;;9.25;;
78781;SDS011;68126;55.748;48.742;2023-05-23T09:36:42;13.93;;;9.55;;
78781;SDS011;68126;55.748;48.742;2023-05-23T09:48:13;17.82;;;10.15;;
78781;SDS011;68126;55.748;48.742;2023-05-23T09:59:01;18.82;;;10.20;;
78781;SDS011;68126;55.748;48.742;2023-05-23T10:04:29;15.40;;;10.18;;
78781;SDS011;68126;55.748;48.742;2023-05-23T10:09:55;13.98;;;10.88;;
78781;SDS011;68126;55.748;48.742;2023-05-23T10:15:20;14.00;;;9.78;;
78781;SDS011;68126;55.748;48.742;2023-05-23T10:20:48;14.10;;;11.20;;
78781;SDS011;68126;55.748;48.742;2023-05-23T10:26:12;15.15;;;11.10;;
78781;SDS011;68126;55.748;48.742;2023-05-23T10:31:37;16.00;;;11.05;;
78781;SDS011;68126;55.748;48.742;2023-05-23T10:37:02;13.38;;;9.88;;
78781;SDS011;68126;55.748;48.742;2023-05-23T10:54:16;15.83;;;9.10;;
78781;SDS011;68126;55.748;48.742;2023-05-23T10:59:42;15.72;;;11.48;;
78781;SDS011;68126;55.748;48.742;2023-05-23T11:10:53;11.45;;;10.25;;
78781;SDS011;68126;55.748;48.742;2023-05-23T11:22:03;13.08;;;9.88;;
78781;SDS011;68126;55.748;48.742;2023-05-23T11:32:55;17.30;;;11.22;;
78781;SDS011;68126;55.748;48.742;2023-05-23T11:38:20;14.35;;;9.78;;
78781;SDS011;68126;55.748;48.742;2023-05-23T11:49:30;13.58;;;9.80;;
78781;SDS011;68126;55.748;48.742;2023-05-23T11:54:54;15.93;;;10.70;;
78781;SDS011;68126;55.748;48.742;2023-05-23T12:00:19;12.75;;;9.85;;
78781;SDS011;68126;55.748;48.742;2023-05-23T12:05:44;13.75;;;9.28;;
78781;SDS011;68126;55.748;48.742;2023-05-23T12:11:10;18.42;;;10.18;;
78781;SDS011;68126;55.748;48.742;2023-05-23T12:16:36;10.18;;;9.18;;
78781;SDS011;68126;55.748;48.742;2023-05-23T12:22:04;16.17;;;9.53;;
78781;SDS011;68126;55.748;48.742;2023-05-23T12:27:28;19.02;;;9.73;;
78781;SDS011;68126;55.748;48.742;2023-05-23T12:32:54;14.28;;;9.58;;
78781;SDS011;68126;55.748;48.742;2023-05-23T12:38:19;10.45;;;9.33;;
78781;SDS011;68126;55.748;48.742;2023-05-23T12:49:29;13.35;;;9.93;;
78781;SDS011;68126;55.748;48.742;2023-05-23T12:54:53;12.58;;;9.25;;
78781;SDS011;68126;55.748;48.742;2023-05-23T13:00:18;11.50;;;9.15;;
78781;SDS011;68126;55.748;48.742;2023-05-23T13:05:43;16.37;;;9.50;;
78781;SDS011;68126;55.748;48.742;2023-05-23T13:11:08;14.35;;;9.40;;
78781;SDS011;68126;55.748;48.742;2023-05-23T13:16:33;14.43;;;9.88;;
78781;SDS011;68126;55.748;48.742;2023-05-23T13:21:57;11.80;;;9.80;;
78781;SDS011;68126;55.748;48.742;2023-05-23T13:27:24;11.68;;;10.08;;
78781;SDS011;68126;55.748;48.742;2023-05-23T13:32:49;14.10;;;9.68;;
78781;SDS011;68126;55.748;48.742;2023-05-23T13:38:13;14.23;;;9.85;;
78781;SDS011;68126;55.748;48.742;2023-05-23T13:43:38;15.32;;;8.08;;
78781;SDS011;68126;55.748;48.742;2023-05-23T13:54:31;11.12;;;8.25;;
78781;SDS011;68126;55.748;48.742;2023-05-23T13:59:55;12.53;;;8.20;;
78781;SDS011;68126;55.748;48.742;2023-05-23T14:05:31;25.02;;;9.53;;
78781;SDS011;68126;55.748;48.742;2023-05-23T14:10:56;10.90;;;9.20;;
78781;SDS011;68126;55.748;48.742;2023-05-23T14:16:21;11.65;;;8.40;;
78781;SDS011;68126;55.748;48.742;2023-05-23T14:21:47;13.45;;;8.88;;
78781;SDS011;68126;55.748;48.742;2023-05-23T14:27:12;11.75;;;7.78;;
78781;SDS011;68126;55.748;48.742;2023-05-23T14:32:40;8.33;;;5.95;;
78781;SDS011;68126;55.748;48.742;2023-05-23T14:38:05;12.47;;;6.75;;
78781;SDS011;68126;55.748;48.742;2023-05-23T14:43:30;10.93;;;7.62;;
78781;SDS011;68126;55.748;48.742;2023-05-23T14:48:54;11.83;;;7.37;;
78781;SDS011;68126;55.748;48.742;2023-05-23T14:54:19;10.20;;;5.83;;
78781;SDS011;68126;55.748;48.742;2023-05-23T14:59:44;15.80;;;8.00;;
78781;SDS011;68126;55.748;48.742;2023-05-23T15:10:32;11.03;;;7.08;;
78781;SDS011;68126;55.748;48.742;2023-05-23T15:21:21;12.37;;;7.40;;
78781;SDS011;68126;55.748;48.742;2023-05-23T15:26:45;11.03;;;7.83;;
78781;SDS011;68126;55.748;48.742;2023-05-23T15:32:10;15.35;;;7.67;;
78781;SDS011;68126;55.748;48.742;2023-05-23T15:37:35;10.15;;;7.25;;
78781;SDS011;68126;55.748;48.742;2023-05-23T15:48:28;16.67;;;8.50;;
78781;SDS011;68126;55.748;48.742;2023-05-23T15:53:53;20.05;;;8.23;;
78781;SDS011;68126;55.748;48.742;2023-05-23T15:59:17;13.18;;;8.68;;
78781;SDS011;68126;55.748;48.742;2023-05-23T16:04:42;11.53;;;7.65;;
78781;SDS011;68126;55.748;48.742;2023-05-23T16:10:07;11.93;;;8.10;;
78781;SDS011;68126;55.748;48.742;2023-05-23T16:21:00;12.85;;;8.25;;
78781;SDS011;68126;55.748;48.742;2023-05-23T16:26:57;14.50;;;9.08;;
78781;SDS011;68126;55.748;48.742;2023-05-23T16:31:55;13.78;;;9.05;;
78781;SDS011;68126;55.748;48.742;2023-05-23T16:37:20;13.75;;;9.43;;
78781;SDS011;68126;55.748;48.742;2023-05-23T16:48:11;15.48;;;9.85;;
78781;SDS011;68126;55.748;48.742;2023-05-23T16:53:37;16.12;;;10.28;;
78781;SDS011;68126;55.748;48.742;2023-05-23T16:59:02;16.02;;;9.40;;
78781;SDS011;68126;55.748;48.742;2023-05-23T17:04:27;14.68;;;9.98;;
78781;SDS011;68126;55.748;48.742;2023-05-23T17:09:51;16.50;;;9.88;;
78781;SDS011;68126;55.748;48.742;2023-05-23T17:15:16;17.67;;;8.65;;
78781;SDS011;68126;55.748;48.742;2023-05-23T17:20:41;20.08;;;9.33;;
78781;SDS011;68126;55.748;48.742;2023-05-23T17:26:06;13.45;;;8.53;;
78781;SDS011;68126;55.748;48.742;2023-05-23T17:31:32;17.55;;;10.03;;
78781;SDS011;68126;55.748;48.742;2023-05-23T17:36:56;17.95;;;8.28;;
78781;SDS011;68126;55.748;48.742;2023-05-23T17:42:21;17.48;;;9.08;;
78781;SDS011;68126;55.748;48.742;2023-05-23T17:47:46;15.05;;;8.43;;
78781;SDS011;68126;55.748;48.742;2023-05-23T17:53:11;20.12;;;9.30;;
78781;SDS011;68126;55.748;48.742;2023-05-23T17:58:36;16.27;;;8.90;;
78781;SDS011;68126;55.748;48.742;2023-05-23T18:04:01;13.32;;;9.08;;
78781;SDS011;68126;55.748;48.742;2023-05-23T18:09:25;14.35;;;9.53;;
78781;SDS011;68126;55.748;48.742;2023-05-23T18:14:52;15.90;;;9.05;;
78781;SDS011;68126;55.748;48.742;2023-05-23T18:20:17;15.78;;;9.18;;
78781;SDS011;68126;55.748;48.742;2023-05-23T18:25:42;15.68;;;9.00;;
78781;SDS011;68126;55.748;48.742;2023-05-23T18:31:07;18.02;;;9.00;;
78781;SDS011;68126;55.748;48.742;2023-05-23T18:36:33;14.65;;;9.08;;
78781;SDS011;68126;55.748;48.742;2023-05-23T18:41:58;14.60;;;9.25;;
78781;SDS011;68126;55.748;48.742;2023-05-23T18:47:23;15.20;;;8.90;;
78781;SDS011;68126;55.748;48.742;2023-05-23T18:58:24;17.95;;;8.13;;
78781;SDS011;68126;55.748;48.742;2023-05-23T19:03:51;14.25;;;7.37;;
78781;SDS011;68126;55.748;48.742;2023-05-23T19:09:18;15.48;;;7.78;;
78781;SDS011;68126;55.748;48.742;2023-05-23T19:14:43;15.83;;;7.37;;
78781;SDS011;68126;55.748;48.742;2023-05-23T19:20:08;11.48;;;6.22;;
78781;SDS011;68126;55.748;48.742;2023-05-23T19:25:33;10.50;;;7.03;;
78781;SDS011;68126;55.748;48.742;2023-05-23T19:30:58;13.38;;;6.30;;
78781;SDS011;68126;55.748;48.742;2023-05-23T19:36:24;11.85;;;6.50;;
78781;SDS011;68126;55.748;48.742;2023-05-23T19:41:48;19.15;;;7.92;;
78781;SDS011;68126;55.748;48.742;2023-05-23T19:47:13;12.28;;;5.42;;
78781;SDS011;68126;55.748;48.742;2023-05-23T19:52:38;9.85;;;7.03;;
78781;SDS011;68126;55.748;48.742;2023-05-23T19:58:04;12.18;;;6.70;;
78781;SDS011;68126;55.748;48.742;2023-05-23T20:03:28;9.65;;;5.97;;
78781;SDS011;68126;55.748;48.742;2023-05-23T20:08:53;16.82;;;6.90;;
78781;SDS011;68126;55.748;48.742;2023-05-23T20:14:18;13.13;;;5.95;;
78781;SDS011;68126;55.748;48.742;2023-05-23T20:19:43;12.88;;;6.20;;
78781;SDS011;68126;55.748;48.742;2023-05-23T20:25:08;11.83;;;6.60;;
78781;SDS011;68126;55.748;48.742;2023-05-23T20:36:17;13.50;;;6.37;;
78781;SDS011;68126;55.748;48.742;2023-05-23T20:41:42;9.38;;;5.67;;
78781;SDS011;68126;55.748;48.742;2023-05-23T20:47:07;11.80;;;5.15;;
78781;SDS011;68126;55.748;48.742;2023-05-23T20:52:31;7.95;;;5.45;;
78781;SDS011;68126;55.748;48.742;2023-05-23T20:57:58;8.78;;;5.70;;
78781;SDS011;68126;55.748;48.742;2023-05-23T21:03:22;10.68;;;4.83;;
78781;SDS011;68126;55.748;48.742;2023-05-23T21:08:47;10.03;;;5.90;;
78781;SDS011;68126;55.748;48.742;2023-05-23T21:14:12;8.63;;;4.87;;
78781;SDS011;68126;55.748;48.742;2023-05-23T21:19:37;12.33;;;6.08;;
78781;SDS011;68126;55.748;48.742;2023-05-23T21:25:02;10.38;;;7.30;;
78781;SDS011;68126;55.748;48.742;2023-05-23T21:30:27;10.55;;;5.97;;
78781;SDS011;68126;55.748;48.742;2023-05-23T21:35:52;11.35;;;5.47;;
78781;SDS011;68126;55.748;48.742;2023-05-23T21:41:17;11.95;;;5.12;;
78781;SDS011;68126;55.748;48.742;2023-05-23T21:46:43;10.80;;;5.30;;
78781;SDS011;68126;55.748;48.742;2023-05-23T21:52:08;8.85;;;3.50;;
78781;SDS011;68126;55.748;48.742;2023-05-23T21:57:33;7.90;;;3.33;;
78781;SDS011;68126;55.748;48.742;2023-05-23T22:02:58;9.48;;;5.62;;
78781;SDS011;68126;55.748;48.742;2023-05-23T22:08:22;6.10;;;4.20;;
78781;SDS011;68126;55.748;48.742;2023-05-23T22:13:47;10.63;;;4.97;;
78781;SDS011;68126;55.748;48.742;2023-05-23T22:19:12;8.63;;;5.15;;
78781;SDS011;68126;55.748;48.742;2023-05-23T22:24:38;9.58;;;4.50;;
78781;SDS011;68126;55.748;48.742;2023-05-23T22:30:03;9.28;;;5.65;;
78781;SDS011;68126;55.748;48.742;2023-05-23T22:35:28;12.88;;;5.42;;
78781;SDS011;68126;55.748;48.742;2023-05-23T22:40:53;10.70;;;5.80;;
78781;SDS011;68126;55.748;48.742;2023-05-23T22:46:18;8.80;;;5.25;;
78781;SDS011;68126;55.748;48.742;2023-05-23T22:51:42;10.63;;;5.47;;
78781;SDS011;68126;55.748;48.742;2023-05-23T22:57:07;9.10;;;3.77;;
78781;SDS011;68126;55.748;48.742;2023-05-23T23:02:32;6.83;;;4.20;;
78781;SDS011;68126;55.748;48.742;2023-05-23T23:07:56;10.93;;;3.45;;
78781;SDS011;68126;55.748;48.742;2023-05-23T23:13:21;7.12;;;4.42;;
78781;SDS011;68126;55.748;48.742;2023-05-23T23:18:46;10.23;;;4.53;;
78781;SDS011;68126;55.748;48.742;2023-05-23T23:24:10;7.87;;;4.50;;
78781;SDS011;68126;55.748;48.742;2023-05-23T23:29:35;10.15;;;5.00;;
78781;SDS011;68126;55.748;48.742;2023-05-23T23:35:00;12.25;;;4.65;;
78781;SDS011;68126;55.748;48.742;2023-05-23T23:40:26;7.90;;;3.60;;
78781;SDS011;68126;55.748;48.742;2023-05-23T23:45:51;8.00;;;3.83;;
78781;SDS011;68126;55.748;48.742;2023-05-23T23:51:16;13.48;;;5.25;;
78781;SDS011;68126;55.748;48.742;2023-05-23T23:56:40;10.32;;;4.37;;
